Flight Track Log - Related Links

Times and Time Zones

All times are in EDT time to prevent confusion due to time zone crossing. See the UCA3597 flight status page for this flight to view local times or setup timezone preferences in your user account.

Time Position Orientation Groundspeed Altitude Reporting Facility
EDT Latitude Longitude Course Direction KTS MPH feet Rate Location/Type
Thu 07:21:39 PM 42.1992 -76.0586 209° Southwest 171 197 4,400  Level New York Center
Thu 07:22:39 PM 42.1583 -76.0889 209° Southwest 176 203 6,500 1,900 Climbing New York Center
Thu 07:23:39 PM 42.1214 -76.1222 214° Southwest 176 203 8,200 1,850 Climbing New York Center
Thu 07:24:39 PM 42.0825 -76.1525 210° Southwest 176 203 10,200 1,950 Climbing New York Center
Thu 07:25:39 PM 42.0500 -76.1806 213° Southwest 164 189 12,100 1,600 Climbing New York Center
Thu 07:26:39 PM 42.0153 -76.2114 213° Southwest 164 189 13,400 1,300 Climbing New York Center
Thu 07:27:39 PM 41.9719 -76.2469 211° Southwest 169 194 14,700 1,250 Climbing New York Center
Thu 07:28:39 PM 41.9331 -76.2797 212° Southwest 174 200 15,900 650 Climbing New York Center
Thu 07:29:39 PM 41.8894 -76.3181 213° Southwest 179 206 16,000 50 Climbing New York Center
Thu 07:30:39 PM 41.8442 -76.3561 212° Southwest 198 228 16,000 50 Level New York Center
Thu 07:31:39 PM 41.7942 -76.3964 211° Southwest 211 243 16,100  Climbing New York Center
Thu 07:32:39 PM 41.7378 -76.4444 212° Southwest 222 255 16,000 -50 Descending New York Center
Thu 07:33:39 PM 41.6858 -76.4872 212° Southwest 222 255 16,000  Level New York Center
Thu 07:34:39 PM 41.6381 -76.5247 210° Southwest 222 255 16,000  Level New York Center
Thu 07:35:39 PM 41.5861 -76.5703 213° Southwest 222 255 16,000  Level New York Center
Thu 07:36:39 PM 41.5275 -76.6178 211° Southwest 222 255 16,000  Level New York Center
Thu 07:37:39 PM 41.4717 -76.6489 203° Southwest 222 255 16,000  Level New York Center
Thu 07:38:39 PM 41.4106 -76.6658 192° South 227 261 16,000  Level New York Center
Thu 07:39:39 PM 41.3575 -76.6858 196° South 232 267 16,000  Level New York Center
Thu 07:40:39 PM 41.2958 -76.7081 195° South 227 261 16,000  Level New York Center
Thu 07:41:39 PM 41.2344 -76.7303 195° South 227 261 16,000  Level New York Center
Thu 07:42:39 PM 41.1753 -76.7472 192° South 227 261 16,000  Level New York Center
Thu 07:43:39 PM 41.1139 -76.7667 193° South 227 261 16,000  Level New York Center
Thu 07:44:39 PM 41.0522 -76.7886 195° South 227 261 16,000  Level New York Center
Thu 07:45:39 PM 40.9908 -76.8081 193° South 227 261 16,000  Level New York Center
Thu 07:46:39 PM 40.9269 -76.8325 196° South 227 261 16,000  Level New York Center
Thu 07:47:40 PM 40.8700 -76.8494 193° South 227 261 16,000  Level New York Center
Thu 07:48:39 PM 40.8022 -76.8708 193° South 227 261 16,000  Level New York Center
Thu 07:49:39 PM 40.7447 -76.8903 194° South 232 267 16,000  Level New York Center
Thu 07:50:39 PM 40.6789 -76.9147 196° South 225 259 16,000  Level New York Center
Thu 07:51:39 PM 40.6217 -76.9314 192° South 230 265 16,000  Level New York Center
Thu 07:52:39 PM 40.5561 -76.9528 194° South 230 265 16,000  Level New York Center
Thu 07:53:39 PM 40.5011 -76.9697 193° South 230 265 16,000  Level New York Center
Thu 07:54:39 PM 40.4350 -76.9939 196° South 230 265 16,000 -150 Level New York Center
Thu 07:55:39 PM 40.3781 -77.0106 193° South 230 265 15,700 -600 Descending New York Center
Thu 07:56:39 PM 40.3097 -77.0369 196° South 225 259 14,800 -800 Descending New York Center
Thu 07:57:39 PM 40.2589 -77.0542 194° South 225 259 14,100 -800 Descending New York Center
Thu 07:58:39 PM 40.2061 -77.0683 192° South 197 227 13,200 -938 Descending New York Center
Thu 08:00:19 PM 40.1333 -77.0833 189° South 180 207 11,600 -975 Descending Potomac TRACON
Thu 08:01:19 PM 40.0833 -77.1000 194° South 183 211 10,600 -1,000 Descending Potomac TRACON
Thu 08:02:19 PM 40.0167 -77.1167 191° South 207 238 9,600 -842 Descending Potomac TRACON
Thu 08:03:13 PM 39.9667 -77.1333 194° South 210 242 9,000 -300 Descending Potomac TRACON
Thu 08:04:19 PM 39.9167 -77.1667 207° Southwest 200 230 9,000 -48 Level Potomac TRACON
Thu 08:05:19 PM 39.8667 -77.2000 207° Southwest 199 229 8,900 -400 Descending Potomac TRACON
Thu 08:06:19 PM 39.8167 -77.2167 194° South 202 232 8,200 -446 Descending Potomac TRACON
Thu 08:07:20 PM 39.7667 -77.2500 207° Southwest 204 235 8,000 -99 Descending Potomac TRACON
Thu 08:08:20 PM 39.7000 -77.2833 201° Southwest 203 234 8,000  Level Potomac TRACON
Thu 08:09:20 PM 39.6500 -77.3167 207° Southwest 202 232 8,000 -50 Level Potomac TRACON
Thu 08:10:20 PM 39.6000 -77.3333 194° South 207 238 7,900  Descending Potomac TRACON
Thu 08:11:14 PM 39.5500 -77.3500 194° South 203 234 8,000 50 Climbing Potomac TRACON
Thu 08:12:20 PM 39.4833 -77.3500 180° South 205 236 8,000 -524 Level Potomac TRACON
Thu 08:13:20 PM 39.4333 -77.3667 194° South 224 258 6,900 -1,550 Descending Potomac TRACON
Thu 08:14:20 PM 39.3667 -77.3667 180° South 240 276 4,900 -1,450 Descending Potomac TRACON
Thu 08:15:20 PM 39.3000 -77.3667 180° South 245 282 4,000 -450 Descending Potomac TRACON
Thu 08:16:20 PM 39.2333 -77.3667 180° South 243 280 4,000  Level Potomac TRACON
Thu 08:17:20 PM 39.1667 -77.3667 180° South 242 278 4,000  Level Potomac TRACON
Thu 08:18:20 PM 39.1000 -77.3667 180° South 240 276 4,000 -450 Level Potomac TRACON
Thu 08:19:20 PM 39.0333 -77.3500 169° South 241 277 3,100 -500 Descending Potomac TRACON
Thu 08:20:20 PM 38.9667 -77.3500 180° South 249 287 3,000 -48 Descending Potomac TRACON
Thu 08:21:26 PM 38.8833 -77.3500 180° South 247 284 3,000 -50 Level Potomac TRACON
Thu 08:22:20 PM 38.8167 -77.3667 191° South 236 272 2,900 -500 Descending Potomac TRACON
Thu 08:23:26 PM 38.8167 -77.4167 270° West 200 230 2,000 -619 Descending Potomac TRACON
Thu 08:24:26 PM 38.8500 -77.4333 339° North 146 168 1,600 -550 Descending Potomac TRACON
Thu 08:25:26 PM 38.8833 -77.4333 360° North 115 132 900 -700 Descending Potomac TRACON

Login

Don't have an account? Register now (free) for customized features, flight alerts, and more!